sensor_id;sensor_type;location;lat;lon;timestamp;temperature;humidity
3005;DHT22;1512;51.486;6.610;2024-01-30T00:03:06;7.20;99.90
3005;DHT22;1512;51.486;6.610;2024-01-30T00:07:15;7.10;1.00
3005;DHT22;1512;51.486;6.610;2024-01-30T00:11:23;7.10;1.00
3005;DHT22;1512;51.486;6.610;2024-01-30T00:15:34;7.10;1.00
3005;DHT22;1512;51.486;6.610;2024-01-30T00:19:43;7.10;1.00
3005;DHT22;1512;51.486;6.610;2024-01-30T00:23:52;7.10;1.00
3005;DHT22;1512;51.486;6.610;2024-01-30T00:28:01;7.00;1.00
3005;DHT22;1512;51.486;6.610;2024-01-30T00:32:09;7.00;99.90
3005;DHT22;1512;51.486;6.610;2024-01-30T00:36:18;7.00;99.90
3005;DHT22;1512;51.486;6.610;2024-01-30T00:40:27;7.00;55.20
3005;DHT22;1512;51.486;6.610;2024-01-30T00:44:36;7.00;99.90
3005;DHT22;1512;51.486;6.610;2024-01-30T00:48:48;6.90;1.00
3005;DHT22;1512;51.486;6.610;2024-01-30T00:52:56;6.90;1.00
3005;DHT22;1512;51.486;6.610;2024-01-30T00:57:05;6.90;99.90
3005;DHT22;1512;51.486;6.610;2024-01-30T01:01:14;6.80;1.00
3005;DHT22;1512;51.486;6.610;2024-01-30T01:05:23;6.80;99.90
3005;DHT22;1512;51.486;6.610;2024-01-30T01:09:31;6.80;99.90
3005;DHT22;1512;51.486;6.610;2024-01-30T01:13:40;6.80;1.00
3005;DHT22;1512;51.486;6.610;2024-01-30T01:17:49;6.80;1.00
3005;DHT22;1512;51.486;6.610;2024-01-30T01:21:58;6.80;1.00
3005;DHT22;1512;51.486;6.610;2024-01-30T01:26:08;6.80;1.00
3005;DHT22;1512;51.486;6.610;2024-01-30T01:30:17;6.80;1.00
3005;DHT22;1512;51.486;6.610;2024-01-30T01:34:29;6.90;99.90
3005;DHT22;1512;51.486;6.610;2024-01-30T01:38:38;6.90;31.60
3005;DHT22;1512;51.486;6.610;2024-01-30T01:42:47;6.90;1.00
3005;DHT22;1512;51.486;6.610;2024-01-30T01:46:58;6.90;1.00
3005;DHT22;1512;51.486;6.610;2024-01-30T01:51:07;6.80;1.00
3005;DHT22;1512;51.486;6.610;2024-01-30T01:55:17;6.90;99.90
3005;DHT22;1512;51.486;6.610;2024-01-30T01:59:28;6.90;99.90
3005;DHT22;1512;51.486;6.610;2024-01-30T02:03:37;6.90;99.90
3005;DHT22;1512;51.486;6.610;2024-01-30T02:07:46;6.90;37.20
3005;DHT22;1512;51.486;6.610;2024-01-30T02:11:55;6.90;27.80
3005;DHT22;1512;51.486;6.610;2024-01-30T02:16:04;6.90;1.00
3005;DHT22;1512;51.486;6.610;2024-01-30T02:20:13;6.90;1.00
3005;DHT22;1512;51.486;6.610;2024-01-30T02:24:22;6.90;99.90
3005;DHT22;1512;51.486;6.610;2024-01-30T02:28:31;6.90;1.00
3005;DHT22;1512;51.486;6.610;2024-01-30T02:32:40;6.90;99.90
3005;DHT22;1512;51.486;6.610;2024-01-30T02:36:48;6.80;1.00
3005;DHT22;1512;51.486;6.610;2024-01-30T02:40:57;6.80;1.00
3005;DHT22;1512;51.486;6.610;2024-01-30T02:45:06;6.80;99.90
3005;DHT22;1512;51.486;6.610;2024-01-30T02:49:15;6.80;99.90
3005;DHT22;1512;51.486;6.610;2024-01-30T02:53:24;6.70;99.90
3005;DHT22;1512;51.486;6.610;2024-01-30T02:57:33;6.70;99.90
3005;DHT22;1512;51.486;6.610;2024-01-30T03:01:48;6.70;99.90
3005;DHT22;1512;51.486;6.610;2024-01-30T03:05:58;6.70;1.00
3005;DHT22;1512;51.486;6.610;2024-01-30T03:10:07;6.70;99.90
3005;DHT22;1512;51.486;6.610;2024-01-30T03:14:16;6.70;1.00
3005;DHT22;1512;51.486;6.610;2024-01-30T03:18:25;6.70;1.00
3005;DHT22;1512;51.486;6.610;2024-01-30T03:22:53;6.70;99.90
3005;DHT22;1512;51.486;6.610;2024-01-30T03:27:02;6.70;1.00
3005;DHT22;1512;51.486;6.610;2024-01-30T03:31:14;6.70;1.00
3005;DHT22;1512;51.486;6.610;2024-01-30T03:35:23;6.70;1.00
3005;DHT22;1512;51.486;6.610;2024-01-30T03:39:31;6.70;1.00
3005;DHT22;1512;51.486;6.610;2024-01-30T03:43:41;6.70;1.00
3005;DHT22;1512;51.486;6.610;2024-01-30T03:47:49;6.70;1.00
3005;DHT22;1512;51.486;6.610;2024-01-30T03:51:58;6.70;1.00
3005;DHT22;1512;51.486;6.610;2024-01-30T03:56:07;6.60;99.90
3005;DHT22;1512;51.486;6.610;2024-01-30T04:00:16;6.60;1.00
3005;DHT22;1512;51.486;6.610;2024-01-30T04:04:24;6.60;99.90
3005;DHT22;1512;51.486;6.610;2024-01-30T04:08:33;6.50;99.90
3005;DHT22;1512;51.486;6.610;2024-01-30T04:12:42;6.50;99.90
3005;DHT22;1512;51.486;6.610;2024-01-30T04:16:51;6.50;1.00
3005;DHT22;1512;51.486;6.610;2024-01-30T04:20:59;6.50;1.00
3005;DHT22;1512;51.486;6.610;2024-01-30T04:25:08;6.50;1.00
3005;DHT22;1512;51.486;6.610;2024-01-30T04:29:17;6.50;99.90
3005;DHT22;1512;51.486;6.610;2024-01-30T04:33:25;6.50;1.00
3005;DHT22;1512;51.486;6.610;2024-01-30T04:37:34;6.50;1.00
3005;DHT22;1512;51.486;6.610;2024-01-30T04:41:43;6.50;1.00
3005;DHT22;1512;51.486;6.610;2024-01-30T04:45:51;6.50;1.00
3005;DHT22;1512;51.486;6.610;2024-01-30T04:50:00;6.50;75.20
3005;DHT22;1512;51.486;6.610;2024-01-30T04:54:10;6.50;49.50
3005;DHT22;1512;51.486;6.610;2024-01-30T04:58:19;6.50;1.00
3005;DHT22;1512;51.486;6.610;2024-01-30T05:02:27;6.50;1.00
3005;DHT22;1512;51.486;6.610;2024-01-30T05:06:36;6.50;1.00
3005;DHT22;1512;51.486;6.610;2024-01-30T05:10:45;6.50;1.00
3005;DHT22;1512;51.486;6.610;2024-01-30T05:14:54;6.50;1.00
3005;DHT22;1512;51.486;6.610;2024-01-30T05:19:03;6.50;1.00
3005;DHT22;1512;51.486;6.610;2024-01-30T05:23:12;6.50;99.90
3005;DHT22;1512;51.486;6.610;2024-01-30T05:27:20;6.50;99.90
3005;DHT22;1512;51.486;6.610;2024-01-30T05:31:30;6.50;99.90
3005;DHT22;1512;51.486;6.610;2024-01-30T05:35:38;6.60;99.90
3005;DHT22;1512;51.486;6.610;2024-01-30T05:39:47;6.60;1.00
3005;DHT22;1512;51.486;6.610;2024-01-30T05:43:56;6.60;1.00
3005;DHT22;1512;51.486;6.610;2024-01-30T05:48:05;6.60;1.00
3005;DHT22;1512;51.486;6.610;2024-01-30T05:52:14;6.60;89.50
3005;DHT22;1512;51.486;6.610;2024-01-30T05:56:23;6.60;96.20
3005;DHT22;1512;51.486;6.610;2024-01-30T06:00:32;6.60;99.90
3005;DHT22;1512;51.486;6.610;2024-01-30T06:04:41;6.70;99.90
3005;DHT22;1512;51.486;6.610;2024-01-30T06:08:50;6.70;99.90
3005;DHT22;1512;51.486;6.610;2024-01-30T06:12:59;6.70;99.90
3005;DHT22;1512;51.486;6.610;2024-01-30T06:17:08;6.80;94.60
3005;DHT22;1512;51.486;6.610;2024-01-30T06:21:19;6.80;99.90
3005;DHT22;1512;51.486;6.610;2024-01-30T06:25:28;6.80;99.90
3005;DHT22;1512;51.486;6.610;2024-01-30T06:29:36;6.80;99.90
3005;DHT22;1512;51.486;6.610;2024-01-30T06:33:47;6.80;99.90
3005;DHT22;1512;51.486;6.610;2024-01-30T06:37:56;6.80;22.60
3005;DHT22;1512;51.486;6.610;2024-01-30T06:42:05;6.80;1.00
3005;DHT22;1512;51.486;6.610;2024-01-30T06:46:13;6.80;37.00
3005;DHT22;1512;51.486;6.610;2024-01-30T06:50:22;6.80;1.00
3005;DHT22;1512;51.486;6.610;2024-01-30T06:54:31;6.80;1.00
3005;DHT22;1512;51.486;6.610;2024-01-30T06:58:41;6.80;21.60
3005;DHT22;1512;51.486;6.610;2024-01-30T07:02:49;6.90;99.90
3005;DHT22;1512;51.486;6.610;2024-01-30T07:06:58;6.90;99.90
3005;DHT22;1512;51.486;6.610;2024-01-30T07:11:07;6.90;19.60
3005;DHT22;1512;51.486;6.610;2024-01-30T07:15:16;6.90;1.00
3005;DHT22;1512;51.486;6.610;2024-01-30T07:19:26;6.90;1.00
3005;DHT22;1512;51.486;6.610;2024-01-30T07:23:35;6.90;1.00
3005;DHT22;1512;51.486;6.610;2024-01-30T07:27:45;6.90;27.00
3005;DHT22;1512;51.486;6.610;2024-01-30T07:31:54;6.90;54.90
3005;DHT22;1512;51.486;6.610;2024-01-30T07:36:02;7.00;99.90
3005;DHT22;1512;51.486;6.610;2024-01-30T07:40:11;7.00;99.90
3005;DHT22;1512;51.486;6.610;2024-01-30T07:44:21;7.10;56.90
3005;DHT22;1512;51.486;6.610;2024-01-30T07:48:31;7.10;1.00
3005;DHT22;1512;51.486;6.610;2024-01-30T07:52:42;7.10;1.00
3005;DHT22;1512;51.486;6.610;2024-01-30T07:56:51;7.20;1.00
3005;DHT22;1512;51.486;6.610;2024-01-30T08:00:59;7.20;1.00
3005;DHT22;1512;51.486;6.610;2024-01-30T08:05:09;7.20;1.00
3005;DHT22;1512;51.486;6.610;2024-01-30T08:09:19;7.20;1.00
3005;DHT22;1512;51.486;6.610;2024-01-30T08:13:27;7.30;1.00
3005;DHT22;1512;51.486;6.610;2024-01-30T08:17:36;7.30;1.00
3005;DHT22;1512;51.486;6.610;2024-01-30T08:21:45;7.40;99.90
3005;DHT22;1512;51.486;6.610;2024-01-30T08:25:54;7.50;99.90
3005;DHT22;1512;51.486;6.610;2024-01-30T08:30:03;7.50;99.90
3005;DHT22;1512;51.486;6.610;2024-01-30T08:34:12;7.50;99.90
3005;DHT22;1512;51.486;6.610;2024-01-30T08:38:20;7.60;1.00
3005;DHT22;1512;51.486;6.610;2024-01-30T08:42:29;7.60;99.90
3005;DHT22;1512;51.486;6.610;2024-01-30T08:46:38;7.60;99.90
3005;DHT22;1512;51.486;6.610;2024-01-30T08:50:47;7.70;99.90
3005;DHT22;1512;51.486;6.610;2024-01-30T08:54:56;7.70;1.00
3005;DHT22;1512;51.486;6.610;2024-01-30T08:59:05;7.80;1.00
3005;DHT22;1512;51.486;6.610;2024-01-30T09:03:13;7.80;99.90
3005;DHT22;1512;51.486;6.610;2024-01-30T09:07:22;7.80;99.90
3005;DHT22;1512;51.486;6.610;2024-01-30T09:11:31;7.90;99.90
3005;DHT22;1512;51.486;6.610;2024-01-30T09:15:40;7.90;1.00
3005;DHT22;1512;51.486;6.610;2024-01-30T09:19:49;8.00;5.50
3005;DHT22;1512;51.486;6.610;2024-01-30T09:24:02;8.00;1.00
3005;DHT22;1512;51.486;6.610;2024-01-30T09:28:11;8.10;1.00
3005;DHT22;1512;51.486;6.610;2024-01-30T09:32:20;8.20;56.70
3005;DHT22;1512;51.486;6.610;2024-01-30T09:36:29;8.20;99.90
3005;DHT22;1512;51.486;6.610;2024-01-30T09:40:38;8.30;99.90
3005;DHT22;1512;51.486;6.610;2024-01-30T09:44:47;8.40;99.90
3005;DHT22;1512;51.486;6.610;2024-01-30T09:48:58;8.40;1.00
3005;DHT22;1512;51.486;6.610;2024-01-30T09:53:08;8.50;1.00
3005;DHT22;1512;51.486;6.610;2024-01-30T09:57:17;8.60;12.00
3005;DHT22;1512;51.486;6.610;2024-01-30T10:01:26;8.80;1.00
3005;DHT22;1512;51.486;6.610;2024-01-30T10:05:36;8.80;1.00
3005;DHT22;1512;51.486;6.610;2024-01-30T10:09:48;8.90;1.00
3005;DHT22;1512;51.486;6.610;2024-01-30T10:13:57;9.00;99.90
3005;DHT22;1512;51.486;6.610;2024-01-30T10:18:06;9.10;83.10
3005;DHT22;1512;51.486;6.610;2024-01-30T10:22:14;9.20;1.00
3005;DHT22;1512;51.486;6.610;2024-01-30T10:26:23;9.20;10.80
3005;DHT22;1512;51.486;6.610;2024-01-30T10:30:32;9.30;37.00
3005;DHT22;1512;51.486;6.610;2024-01-30T10:34:40;9.40;45.40
3005;DHT22;1512;51.486;6.610;2024-01-30T10:38:51;9.40;1.00
3005;DHT22;1512;51.486;6.610;2024-01-30T10:43:01;9.50;1.00
3005;DHT22;1512;51.486;6.610;2024-01-30T10:47:12;9.50;1.00
3005;DHT22;1512;51.486;6.610;2024-01-30T10:51:30;9.60;1.00
3005;DHT22;1512;51.486;6.610;2024-01-30T10:55:35;9.60;1.00
3005;DHT22;1512;51.486;6.610;2024-01-30T10:59:45;9.60;1.00
3005;DHT22;1512;51.486;6.610;2024-01-30T11:03:55;9.70;1.00
3005;DHT22;1512;51.486;6.610;2024-01-30T11:08:22;9.70;1.00
3005;DHT22;1512;51.486;6.610;2024-01-30T11:12:26;9.80;1.00
3005;DHT22;1512;51.486;6.610;2024-01-30T11:16:35;9.80;1.00
3005;DHT22;1512;51.486;6.610;2024-01-30T11:20:46;9.90;1.00
3005;DHT22;1512;51.486;6.610;2024-01-30T11:24:56;9.90;1.00
3005;DHT22;1512;51.486;6.610;2024-01-30T11:29:07;10.00;1.00
3005;DHT22;1512;51.486;6.610;2024-01-30T11:33:28;10.00;1.00
3005;DHT22;1512;51.486;6.610;2024-01-30T11:37:41;10.00;1.00
3005;DHT22;1512;51.486;6.610;2024-01-30T11:41:51;10.00;1.00
3005;DHT22;1512;51.486;6.610;2024-01-30T11:46:00;10.00;1.00
3005;DHT22;1512;51.486;6.610;2024-01-30T11:50:10;10.00;1.00
3005;DHT22;1512;51.486;6.610;2024-01-30T11:54:19;10.00;1.00
3005;DHT22;1512;51.486;6.610;2024-01-30T11:58:28;10.00;1.00
3005;DHT22;1512;51.486;6.610;2024-01-30T12:02:37;10.00;1.00
3005;DHT22;1512;51.486;6.610;2024-01-30T12:06:46;10.10;1.00
3005;DHT22;1512;51.486;6.610;2024-01-30T12:10:57;10.10;1.00
3005;DHT22;1512;51.486;6.610;2024-01-30T12:15:14;10.10;1.00
3005;DHT22;1512;51.486;6.610;2024-01-30T12:19:24;10.20;1.00
3005;DHT22;1512;51.486;6.610;2024-01-30T12:23:33;10.20;1.00
3005;DHT22;1512;51.486;6.610;2024-01-30T12:27:47;10.20;1.00
3005;DHT22;1512;51.486;6.610;2024-01-30T12:31:57;10.20;1.00
3005;DHT22;1512;51.486;6.610;2024-01-30T12:36:06;10.30;1.00
3005;DHT22;1512;51.486;6.610;2024-01-30T12:40:15;10.30;1.00
3005;DHT22;1512;51.486;6.610;2024-01-30T12:44:25;10.40;1.00
3005;DHT22;1512;51.486;6.610;2024-01-30T12:48:34;10.40;1.00
3005;DHT22;1512;51.486;6.610;2024-01-30T12:52:43;10.50;1.00
3005;DHT22;1512;51.486;6.610;2024-01-30T12:56:53;10.50;1.00
3005;DHT22;1512;51.486;6.610;2024-01-30T13:01:04;10.50;1.00
3005;DHT22;1512;51.486;6.610;2024-01-30T13:05:12;10.60;1.00
3005;DHT22;1512;51.486;6.610;2024-01-30T13:09:23;10.70;1.00
3005;DHT22;1512;51.486;6.610;2024-01-30T13:13:32;10.90;1.00
3005;DHT22;1512;51.486;6.610;2024-01-30T13:17:41;11.00;1.00
3005;DHT22;1512;51.486;6.610;2024-01-30T13:21:51;11.10;1.00
3005;DHT22;1512;51.486;6.610;2024-01-30T13:26:00;11.10;1.00
3005;DHT22;1512;51.486;6.610;2024-01-30T13:30:08;11.10;1.00
3005;DHT22;1512;51.486;6.610;2024-01-30T13:34:17;11.20;1.00
3005;DHT22;1512;51.486;6.610;2024-01-30T13:38:26;11.20;1.00
3005;DHT22;1512;51.486;6.610;2024-01-30T13:42:35;11.20;1.00
3005;DHT22;1512;51.486;6.610;2024-01-30T13:46:45;11.30;1.00
3005;DHT22;1512;51.486;6.610;2024-01-30T13:50:54;11.20;1.00
3005;DHT22;1512;51.486;6.610;2024-01-30T13:55:03;11.20;1.00
3005;DHT22;1512;51.486;6.610;2024-01-30T13:59:12;11.20;1.00
3005;DHT22;1512;51.486;6.610;2024-01-30T14:03:20;11.20;1.00
3005;DHT22;1512;51.486;6.610;2024-01-30T14:07:29;11.20;1.00
3005;DHT22;1512;51.486;6.610;2024-01-30T14:11:38;11.30;1.00
3005;DHT22;1512;51.486;6.610;2024-01-30T14:15:47;11.30;1.00
3005;DHT22;1512;51.486;6.610;2024-01-30T14:19:55;11.30;1.00
3005;DHT22;1512;51.486;6.610;2024-01-30T14:24:04;11.40;1.00
3005;DHT22;1512;51.486;6.610;2024-01-30T14:28:13;11.40;1.00
3005;DHT22;1512;51.486;6.610;2024-01-30T14:32:22;11.40;1.00
3005;DHT22;1512;51.486;6.610;2024-01-30T14:36:31;11.20;1.00
3005;DHT22;1512;51.486;6.610;2024-01-30T14:40:41;11.20;1.00
3005;DHT22;1512;51.486;6.610;2024-01-30T14:44:50;11.20;1.00
3005;DHT22;1512;51.486;6.610;2024-01-30T14:48:59;11.20;1.00
3005;DHT22;1512;51.486;6.610;2024-01-30T14:53:09;11.10;1.00
3005;DHT22;1512;51.486;6.610;2024-01-30T14:57:18;11.10;1.00
3005;DHT22;1512;51.486;6.610;2024-01-30T15:01:27;11.10;1.00
3005;DHT22;1512;51.486;6.610;2024-01-30T15:05:36;11.20;1.00
3005;DHT22;1512;51.486;6.610;2024-01-30T15:09:45;11.10;1.00
3005;DHT22;1512;51.486;6.610;2024-01-30T15:13:53;11.10;1.00
3005;DHT22;1512;51.486;6.610;2024-01-30T15:18:03;11.20;1.00
3005;DHT22;1512;51.486;6.610;2024-01-30T15:22:14;11.20;1.00
3005;DHT22;1512;51.486;6.610;2024-01-30T15:26:25;11.10;1.00
3005;DHT22;1512;51.486;6.610;2024-01-30T15:30:37;11.00;1.00
3005;DHT22;1512;51.486;6.610;2024-01-30T15:34:46;10.90;1.00
3005;DHT22;1512;51.486;6.610;2024-01-30T15:38:55;10.70;1.00
3005;DHT22;1512;51.486;6.610;2024-01-30T15:43:04;10.70;1.00
3005;DHT22;1512;51.486;6.610;2024-01-30T15:47:13;10.60;1.00
3005;DHT22;1512;51.486;6.610;2024-01-30T15:51:21;10.50;1.00
3005;DHT22;1512;51.486;6.610;2024-01-30T15:55:32;10.40;1.00
3005;DHT22;1512;51.486;6.610;2024-01-30T15:59:42;10.40;1.00
3005;DHT22;1512;51.486;6.610;2024-01-30T16:03:51;10.30;1.00
3005;DHT22;1512;51.486;6.610;2024-01-30T16:08:00;10.30;1.00
3005;DHT22;1512;51.486;6.610;2024-01-30T16:12:08;10.30;1.00
3005;DHT22;1512;51.486;6.610;2024-01-30T16:16:17;10.30;1.00
3005;DHT22;1512;51.486;6.610;2024-01-30T16:20:26;10.20;1.00
3005;DHT22;1512;51.486;6.610;2024-01-30T16:24:35;10.30;1.00
3005;DHT22;1512;51.486;6.610;2024-01-30T16:28:44;10.20;1.00
3005;DHT22;1512;51.486;6.610;2024-01-30T16:32:53;10.20;1.00
3005;DHT22;1512;51.486;6.610;2024-01-30T16:37:02;10.20;1.00
3005;DHT22;1512;51.486;6.610;2024-01-30T16:41:11;10.20;1.00
3005;DHT22;1512;51.486;6.610;2024-01-30T16:45:20;10.10;1.00
3005;DHT22;1512;51.486;6.610;2024-01-30T16:49:29;10.30;1.00
3005;DHT22;1512;51.486;6.610;2024-01-30T16:53:38;10.10;1.00
3005;DHT22;1512;51.486;6.610;2024-01-30T16:57:46;10.00;1.00
3005;DHT22;1512;51.486;6.610;2024-01-30T17:01:55;10.00;1.00
3005;DHT22;1512;51.486;6.610;2024-01-30T17:06:05;9.90;1.00
3005;DHT22;1512;51.486;6.610;2024-01-30T17:10:15;9.70;1.00
3005;DHT22;1512;51.486;6.610;2024-01-30T17:14:25;9.60;1.00
3005;DHT22;1512;51.486;6.610;2024-01-30T17:18:36;9.50;1.00
3005;DHT22;1512;51.486;6.610;2024-01-30T17:22:44;9.50;1.00
3005;DHT22;1512;51.486;6.610;2024-01-30T17:26:53;9.50;1.00
3005;DHT22;1512;51.486;6.610;2024-01-30T17:31:02;9.40;1.00
3005;DHT22;1512;51.486;6.610;2024-01-30T17:35:11;9.30;1.00
3005;DHT22;1512;51.486;6.610;2024-01-30T17:39:20;9.30;1.00
3005;DHT22;1512;51.486;6.610;2024-01-30T17:43:29;9.30;1.00
3005;DHT22;1512;51.486;6.610;2024-01-30T17:47:38;9.20;1.00
3005;DHT22;1512;51.486;6.610;2024-01-30T17:51:46;9.20;1.00
3005;DHT22;1512;51.486;6.610;2024-01-30T17:55:55;9.20;1.00
3005;DHT22;1512;51.486;6.610;2024-01-30T18:00:06;9.10;1.00
3005;DHT22;1512;51.486;6.610;2024-01-30T18:04:17;9.10;1.00
3005;DHT22;1512;51.486;6.610;2024-01-30T18:08:26;9.10;1.00
3005;DHT22;1512;51.486;6.610;2024-01-30T18:12:35;9.00;1.00
3005;DHT22;1512;51.486;6.610;2024-01-30T18:16:44;9.00;1.00
3005;DHT22;1512;51.486;6.610;2024-01-30T18:20:52;9.00;1.00
3005;DHT22;1512;51.486;6.610;2024-01-30T18:25:01;9.00;1.00
3005;DHT22;1512;51.486;6.610;2024-01-30T18:29:10;9.00;1.00
3005;DHT22;1512;51.486;6.610;2024-01-30T18:33:19;9.00;1.00
3005;DHT22;1512;51.486;6.610;2024-01-30T18:37:28;9.00;1.00
3005;DHT22;1512;51.486;6.610;2024-01-30T18:41:37;9.00;1.00
3005;DHT22;1512;51.486;6.610;2024-01-30T18:45:55;8.90;1.00
3005;DHT22;1512;51.486;6.610;2024-01-30T18:50:03;8.90;1.00
3005;DHT22;1512;51.486;6.610;2024-01-30T18:54:12;8.90;1.00
3005;DHT22;1512;51.486;6.610;2024-01-30T18:58:21;8.90;1.00
3005;DHT22;1512;51.486;6.610;2024-01-30T19:02:30;8.80;1.00
3005;DHT22;1512;51.486;6.610;2024-01-30T19:06:39;8.80;1.00
3005;DHT22;1512;51.486;6.610;2024-01-30T19:10:48;8.80;1.00
3005;DHT22;1512;51.486;6.610;2024-01-30T19:15:01;8.80;1.00
3005;DHT22;1512;51.486;6.610;2024-01-30T19:19:11;8.70;1.00
3005;DHT22;1512;51.486;6.610;2024-01-30T19:23:19;8.70;1.00
3005;DHT22;1512;51.486;6.610;2024-01-30T19:27:28;8.60;1.00
3005;DHT22;1512;51.486;6.610;2024-01-30T19:31:37;8.50;1.00
3005;DHT22;1512;51.486;6.610;2024-01-30T19:35:45;8.40;1.00
3005;DHT22;1512;51.486;6.610;2024-01-30T19:39:54;8.30;1.00
3005;DHT22;1512;51.486;6.610;2024-01-30T19:44:03;8.30;1.00
3005;DHT22;1512;51.486;6.610;2024-01-30T19:48:12;8.30;1.00
3005;DHT22;1512;51.486;6.610;2024-01-30T19:52:21;8.30;1.00
3005;DHT22;1512;51.486;6.610;2024-01-30T19:56:30;8.30;1.00
3005;DHT22;1512;51.486;6.610;2024-01-30T20:00:38;8.30;1.00
3005;DHT22;1512;51.486;6.610;2024-01-30T20:04:47;8.30;1.00
3005;DHT22;1512;51.486;6.610;2024-01-30T20:08:56;8.30;1.00
3005;DHT22;1512;51.486;6.610;2024-01-30T20:13:05;8.30;1.00
3005;DHT22;1512;51.486;6.610;2024-01-30T20:17:13;8.30;1.00
3005;DHT22;1512;51.486;6.610;2024-01-30T20:21:23;8.30;1.00
3005;DHT22;1512;51.486;6.610;2024-01-30T20:25:31;8.30;1.00
3005;DHT22;1512;51.486;6.610;2024-01-30T20:29:40;8.20;1.00
3005;DHT22;1512;51.486;6.610;2024-01-30T20:33:50;8.20;1.00
3005;DHT22;1512;51.486;6.610;2024-01-30T20:37:59;8.20;1.00
3005;DHT22;1512;51.486;6.610;2024-01-30T20:42:07;8.20;1.00
3005;DHT22;1512;51.486;6.610;2024-01-30T20:46:16;8.20;1.00
3005;DHT22;1512;51.486;6.610;2024-01-30T20:50:26;8.20;1.00
3005;DHT22;1512;51.486;6.610;2024-01-30T20:54:34;8.20;1.00
3005;DHT22;1512;51.486;6.610;2024-01-30T20:58:43;8.20;1.00
3005;DHT22;1512;51.486;6.610;2024-01-30T21:02:52;8.10;1.00
3005;DHT22;1512;51.486;6.610;2024-01-30T21:07:00;8.10;1.00
3005;DHT22;1512;51.486;6.610;2024-01-30T21:11:10;8.10;1.00
3005;DHT22;1512;51.486;6.610;2024-01-30T21:15:19;8.10;1.00
3005;DHT22;1512;51.486;6.610;2024-01-30T21:19:27;8.10;1.00
3005;DHT22;1512;51.486;6.610;2024-01-30T21:23:38;8.10;1.00
3005;DHT22;1512;51.486;6.610;2024-01-30T21:27:47;8.10;1.00
3005;DHT22;1512;51.486;6.610;2024-01-30T21:31:55;8.10;1.00
3005;DHT22;1512;51.486;6.610;2024-01-30T21:36:06;8.10;1.00
3005;DHT22;1512;51.486;6.610;2024-01-30T21:40:15;8.10;1.00
3005;DHT22;1512;51.486;6.610;2024-01-30T21:44:25;8.10;28.00
3005;DHT22;1512;51.486;6.610;2024-01-30T21:48:35;8.00;56.40
3005;DHT22;1512;51.486;6.610;2024-01-30T21:52:45;8.00;99.90
3005;DHT22;1512;51.486;6.610;2024-01-30T21:56:54;8.00;99.90
3005;DHT22;1512;51.486;6.610;2024-01-30T22:01:03;7.90;99.90
3005;DHT22;1512;51.486;6.610;2024-01-30T22:05:12;8.00;99.90
3005;DHT22;1512;51.486;6.610;2024-01-30T22:09:40;8.00;99.90
3005;DHT22;1512;51.486;6.610;2024-01-30T22:13:48;7.90;99.90
3005;DHT22;1512;51.486;6.610;2024-01-30T22:17:57;7.90;99.90
3005;DHT22;1512;51.486;6.610;2024-01-30T22:22:06;7.90;99.90
3005;DHT22;1512;51.486;6.610;2024-01-30T22:26:15;7.90;99.90
3005;DHT22;1512;51.486;6.610;2024-01-30T22:30:24;7.90;99.90
3005;DHT22;1512;51.486;6.610;2024-01-30T22:34:33;7.90;1.00
3005;DHT22;1512;51.486;6.610;2024-01-30T22:38:42;7.90;1.00
3005;DHT22;1512;51.486;6.610;2024-01-30T22:42:51;7.90;1.00
3005;DHT22;1512;51.486;6.610;2024-01-30T22:47:02;7.80;99.90
3005;DHT22;1512;51.486;6.610;2024-01-30T22:51:11;7.80;1.00
3005;DHT22;1512;51.486;6.610;2024-01-30T22:55:20;7.80;1.00
3005;DHT22;1512;51.486;6.610;2024-01-30T22:59:28;7.70;99.90
3005;DHT22;1512;51.486;6.610;2024-01-30T23:03:37;7.70;99.90
3005;DHT22;1512;51.486;6.610;2024-01-30T23:07:49;7.60;1.00
3005;DHT22;1512;51.486;6.610;2024-01-30T23:11:58;7.60;1.00
3005;DHT22;1512;51.486;6.610;2024-01-30T23:16:07;7.60;1.00
3005;DHT22;1512;51.486;6.610;2024-01-30T23:20:16;7.50;1.00
3005;DHT22;1512;51.486;6.610;2024-01-30T23:24:25;7.60;1.00
3005;DHT22;1512;51.486;6.610;2024-01-30T23:28:34;7.50;1.00
3005;DHT22;1512;51.486;6.610;2024-01-30T23:32:42;7.50;1.00
3005;DHT22;1512;51.486;6.610;2024-01-30T23:36:51;7.50;1.00
3005;DHT22;1512;51.486;6.610;2024-01-30T23:41:00;7.50;1.00
3005;DHT22;1512;51.486;6.610;2024-01-30T23:45:09;7.50;1.00
3005;DHT22;1512;51.486;6.610;2024-01-30T23:49:18;7.50;1.00
3005;DHT22;1512;51.486;6.610;2024-01-30T23:53:27;7.50;1.00
3005;DHT22;1512;51.486;6.610;2024-01-30T23:57:36;7.50;1.00
